Time;durP1;ratioP1;P1;durP2;ratioP2;P2;SDS_P1;SDS_P2;PMS_P1;PMS_P2;Temp;Humidity;BMP_temperature;BMP_pressure;BME280_temperature;BME280_humidity;BME280_pressure;Samples;Min_cycle;Max_cycle;Signal;HPM_P1;HPM_P2
2022/02/28 00:01:45;;;;;;;6.03;1.33;;;11.20;99.90;;;;;;5090216;28;20225;-64
2022/02/28 00:04:12;;;;;;;4.40;1.30;;;11.20;99.90;;;;;;5098202;28;20277;-64
2022/02/28 00:06:39;;;;;;;4.67;1.53;;;11.20;99.90;;;;;;5060594;28;20202;-64
2022/02/28 00:09:05;;;;;;;3.97;1.90;;;11.20;99.90;;;;;;5073057;28;20198;-64
2022/02/28 00:11:31;;;;;;;3.07;1.43;;;11.20;99.90;;;;;;5101705;28;20199;-64
2022/02/28 00:13:58;;;;;;;6.43;1.30;;;11.10;99.90;;;;;;5095716;28;20213;-64
2022/02/28 00:16:24;;;;;;;5.37;1.37;;;11.10;99.90;;;;;;5081554;28;20218;-64
2022/02/28 00:18:51;;;;;;;7.27;1.80;;;11.10;99.90;;;;;;5086951;28;20840;-63
2022/02/28 00:21:18;;;;;;;7.17;1.90;;;11.10;99.90;;;;;;5074655;28;20198;-64
2022/02/28 00:23:48;;;;;;;5.00;1.70;;;11.10;99.90;;;;;;5087773;28;20190;-62
2022/02/28 00:26:15;;;;;;;10.57;1.63;;;11.10;99.90;;;;;;5086152;28;20281;-63
2022/02/28 00:28:42;;;;;;;5.67;1.60;;;11.10;99.90;;;;;;5087479;28;20194;-60
2022/02/28 00:31:09;;;;;;;6.23;1.50;;;11.10;99.90;;;;;;5089180;28;20194;-60
2022/02/28 00:33:37;;;;;;;4.80;1.60;;;11.10;99.90;;;;;;5081320;28;21928;-65
2022/02/28 00:36:06;;;;;;;4.93;1.50;;;11.10;99.90;;;;;;5066865;28;20539;-63
2022/02/28 00:38:34;;;;;;;5.13;1.60;;;11.10;99.90;;;;;;5077864;28;20209;-64
2022/02/28 00:41:01;;;;;;;2.70;1.10;;;11.10;99.90;;;;;;5085922;28;20571;-64
2022/02/28 00:43:28;;;;;;;4.57;1.50;;;11.10;99.90;;;;;;5088601;28;20206;-64
2022/02/28 00:45:56;;;;;;;3.53;1.50;;;11.10;99.90;;;;;;5090340;28;20204;-63
2022/02/28 00:48:23;;;;;;;4.23;1.47;;;11.10;99.90;;;;;;5090714;28;20208;-63
2022/02/28 00:50:50;;;;;;;6.87;1.70;;;11.10;99.90;;;;;;5089047;28;20228;-65
2022/02/28 00:53:19;;;;;;;3.03;1.30;;;11.10;99.90;;;;;;5086528;28;20197;-63
2022/02/28 00:55:47;;;;;;;4.67;1.50;;;11.10;99.90;;;;;;5069587;28;20297;-63
2022/02/28 00:58:14;;;;;;;4.00;1.40;;;11.10;99.90;;;;;;5084786;28;20198;-62
2022/02/28 01:00:41;;;;;;;7.43;1.63;;;11.10;99.90;;;;;;5083382;28;20707;-63
2022/02/28 01:03:09;;;;;;;4.73;1.53;;;11.10;99.90;;;;;;5073396;28;20898;-64
2022/02/28 01:05:36;;;;;;;3.63;1.73;;;11.10;99.90;;;;;;5089078;28;20209;-64
2022/02/28 01:08:03;;;;;;;4.90;1.43;;;11.10;99.90;;;;;;5089661;28;20228;-63
2022/02/28 01:10:31;;;;;;;6.80;2.20;;;11.10;99.90;;;;;;5081680;28;20197;-63
2022/02/28 01:12:58;;;;;;;6.40;1.80;;;11.10;99.90;;;;;;5072744;28;20189;-64
2022/02/28 01:15:25;;;;;;;5.33;1.63;;;11.10;99.90;;;;;;5089214;28;20652;-63
2022/02/28 01:17:52;;;;;;;6.17;1.50;;;11.10;99.90;;;;;;5090995;28;20229;-63
2022/02/28 01:20:19;;;;;;;3.33;1.40;;;11.10;99.90;;;;;;5070610;28;20187;-64
2022/02/28 01:22:46;;;;;;;4.07;1.50;;;11.10;99.90;;;;;;5085373;28;20197;-62
2022/02/28 01:25:14;;;;;;;7.20;1.70;;;11.10;99.90;;;;;;5089196;28;20190;-64
2022/02/28 01:27:42;;;;;;;5.57;1.50;;;11.10;99.90;;;;;;5089022;28;20204;-64
2022/02/28 01:30:11;;;;;;;8.23;1.33;;;11.10;99.90;;;;;;5087582;28;20194;-62
2022/02/28 01:32:37;;;;;;;3.60;1.50;;;11.10;99.90;;;;;;5073826;28;20190;-64
2022/02/28 01:35:07;;;;;;;6.83;1.90;;;11.10;99.90;;;;;;5088872;28;20232;-63
2022/02/28 01:37:34;;;;;;;6.80;1.67;;;11.10;99.90;;;;;;5087060;28;20193;-63
2022/02/28 01:40:01;;;;;;;7.83;1.70;;;11.10;99.90;;;;;;5085664;28;20232;-65
2022/02/28 01:42:28;;;;;;;6.53;1.40;;;11.10;99.90;;;;;;5086738;28;20637;-63
2022/02/28 01:44:55;;;;;;;2.87;1.40;;;11.00;99.90;;;;;;5090897;28;20248;-63
2022/02/28 01:47:21;;;;;;;4.50;1.60;;;11.00;99.90;;;;;;5088362;28;20186;-65
2022/02/28 01:49:49;;;;;;;5.57;1.60;;;11.00;99.90;;;;;;5084276;28;20174;-63
2022/02/28 01:52:16;;;;;;;6.13;1.60;;;11.00;99.90;;;;;;5071155;28;20270;-64
2022/02/28 01:54:46;;;;;;;7.60;1.60;;;10.90;99.90;;;;;;5072084;28;20339;-63
2022/02/28 01:57:13;;;;;;;5.07;1.53;;;10.90;99.90;;;;;;5089278;28;20202;-65
2022/02/28 01:59:41;;;;;;;8.37;1.63;;;10.90;99.90;;;;;;5088577;28;20528;-63
2022/02/28 02:02:07;;;;;;;5.83;1.50;;;10.90;99.90;;;;;;5090148;28;20186;-63
2022/02/28 02:04:37;;;;;;;7.30;2.23;;;10.90;99.90;;;;;;5089791;28;20193;-63
2022/02/28 02:07:04;;;;;;;8.17;1.80;;;10.90;99.90;;;;;;5089428;28;20197;-64
2022/02/28 02:09:34;;;;;;;8.20;1.80;;;10.80;99.90;;;;;;5086369;28;20605;-64
2022/02/28 02:12:04;;;;;;;4.50;1.60;;;10.80;99.90;;;;;;5077896;28;20965;-63
2022/02/28 02:14:35;;;;;;;5.93;1.53;;;10.80;99.90;;;;;;5089121;28;20186;-64
2022/02/28 02:17:03;;;;;;;6.20;1.40;;;10.80;99.90;;;;;;5067423;28;20327;-62
2022/02/28 02:19:31;;;;;;;4.70;1.60;;;10.80;99.90;;;;;;5085322;28;20202;-64
2022/02/28 02:21:58;;;;;;;5.63;1.50;;;10.70;99.90;;;;;;5084678;28;20185;-64
2022/02/28 02:24:24;;;;;;;4.93;1.60;;;10.70;99.90;;;;;;5070943;28;20198;-63
2022/02/28 02:26:51;;;;;;;5.37;1.73;;;10.70;99.90;;;;;;5089277;28;20822;-63
2022/02/28 02:29:18;;;;;;;5.73;1.80;;;10.70;99.90;;;;;;5089050;28;20803;-63
2022/02/28 02:31:44;;;;;;;8.00;1.60;;;10.70;99.90;;;;;;5089117;28;20186;-64
2022/02/28 02:34:15;;;;;;;3.93;1.60;;;10.70;99.90;;;;;;5089333;28;20701;-64
2022/02/28 02:36:42;;;;;;;3.97;1.50;;;10.80;99.90;;;;;;5089770;28;20256;-64
2022/02/28 02:39:10;;;;;;;7.30;1.70;;;10.80;99.90;;;;;;5086943;28;20194;-65
2022/02/28 02:41:37;;;;;;;6.87;1.40;;;10.80;99.90;;;;;;5071946;28;20213;-63
2022/02/28 02:44:04;;;;;;;6.03;1.50;;;10.80;99.90;;;;;;5087999;28;20291;-63
2022/02/28 02:46:31;;;;;;;5.17;1.90;;;10.90;99.90;;;;;;5088398;28;20243;-62
2022/02/28 02:48:58;;;;;;;5.60;1.70;;;10.90;99.90;;;;;;5086429;28;20307;-63
2022/02/28 02:51:25;;;;;;;4.23;1.67;;;10.90;99.90;;;;;;5072656;28;20186;-64
2022/02/28 02:53:52;;;;;;;6.93;1.73;;;10.90;99.90;;;;;;5073404;28;20193;-63
2022/02/28 02:56:20;;;;;;;3.87;1.50;;;10.90;99.90;;;;;;5094280;28;20224;-65
2022/02/28 02:58:47;;;;;;;10.30;2.30;;;10.90;99.90;;;;;;5075843;28;20182;-63
2022/02/28 03:01:14;;;;;;;4.97;1.67;;;10.90;99.90;;;;;;5075755;28;20193;-63
2022/02/28 03:03:41;;;;;;;5.70;1.57;;;11.00;99.90;;;;;;5075551;28;20197;-63
2022/02/28 03:06:08;;;;;;;7.60;1.70;;;10.90;99.90;;;;;;5093981;28;20646;-64
2022/02/28 03:08:34;;;;;;;7.90;1.80;;;11.00;99.90;;;;;;5076620;28;20996;-63
2022/02/28 03:11:01;;;;;;;4.17;1.73;;;11.00;99.90;;;;;;5093265;28;20196;-64
2022/02/28 03:13:28;;;;;;;2.47;1.33;;;10.90;99.90;;;;;;5068531;28;20190;-63
2022/02/28 03:15:55;;;;;;;3.23;1.50;;;10.90;99.90;;;;;;5089920;28;20217;-62
2022/02/28 03:18:22;;;;;;;3.10;1.70;;;10.90;99.90;;;;;;5089732;28;20179;-64
2022/02/28 03:20:48;;;;;;;3.40;1.57;;;10.80;99.90;;;;;;5082434;28;20275;-63
2022/02/28 03:23:15;;;;;;;8.57;1.90;;;10.80;99.90;;;;;;5092240;28;20527;-64
2022/02/28 03:25:43;;;;;;;5.23;1.60;;;10.80;99.90;;;;;;5075256;28;20182;-64
2022/02/28 03:28:11;;;;;;;8.40;1.50;;;10.80;99.90;;;;;;5075775;28;20630;-63
2022/02/28 03:30:39;;;;;;;2.57;1.23;;;10.80;99.90;;;;;;5093501;28;20189;-63
2022/02/28 03:33:05;;;;;;;5.47;1.77;;;10.80;99.90;;;;;;5085166;28;20182;-63
2022/02/28 03:35:33;;;;;;;6.23;1.70;;;10.80;99.90;;;;;;5080230;28;20212;-64
2022/02/28 03:38:00;;;;;;;4.63;1.60;;;10.70;99.90;;;;;;5084771;28;20186;-64
2022/02/28 03:40:27;;;;;;;6.63;1.80;;;10.70;99.90;;;;;;5072270;28;20201;-62
2022/02/28 03:42:57;;;;;;;8.73;1.70;;;10.60;99.90;;;;;;5076914;28;20194;-63
2022/02/28 03:45:24;;;;;;;6.67;1.47;;;10.70;99.90;;;;;;5085617;28;20222;-63
2022/02/28 03:47:52;;;;;;;7.83;1.67;;;10.70;99.90;;;;;;5093066;28;20522;-62
2022/02/28 03:50:19;;;;;;;4.83;1.43;;;10.70;99.90;;;;;;5074541;28;20631;-64
2022/02/28 03:52:46;;;;;;;3.87;1.50;;;10.70;99.90;;;;;;5073883;28;20905;-63
2022/02/28 03:55:14;;;;;;;6.33;2.17;;;10.70;99.90;;;;;;5074019;28;20313;-65
2022/02/28 03:57:40;;;;;;;2.20;1.13;;;10.60;99.90;;;;;;5093082;28;20188;-63
2022/02/28 04:00:08;;;;;;;5.87;1.50;;;10.60;99.90;;;;;;5091150;28;20186;-64
2022/02/28 04:02:37;;;;;;;5.40;1.70;;;10.60;99.90;;;;;;5065478;28;20266;-63
2022/02/28 04:05:07;;;;;;;5.97;1.70;;;10.60;99.90;;;;;;5073550;28;20186;-64
2022/02/28 04:07:34;;;;;;;8.30;1.80;;;10.60;99.90;;;;;;5074558;28;20189;-63
2022/02/28 04:10:03;;;;;;;3.67;1.67;;;10.60;99.90;;;;;;5072216;28;20535;-64
2022/02/28 04:12:31;;;;;;;4.80;1.60;;;10.60;99.90;;;;;;5083970;28;20200;-63
2022/02/28 04:14:58;;;;;;;4.60;1.50;;;10.60;99.90;;;;;;5059437;28;20214;-65
2022/02/28 04:17:24;;;;;;;8.63;1.90;;;10.70;99.90;;;;;;5071053;28;20189;-64
2022/02/28 04:19:51;;;;;;;7.27;2.20;;;10.70;99.90;;;;;;5061161;28;20190;-63
2022/02/28 04:22:18;;;;;;;5.63;1.70;;;10.70;99.90;;;;;;5069364;28;20187;-63
2022/02/28 04:24:46;;;;;;;7.87;1.97;;;10.60;99.90;;;;;;5079551;28;20274;-64
2022/02/28 04:27:13;;;;;;;6.40;1.77;;;10.60;99.90;;;;;;5090907;28;20182;-64
2022/02/28 04:29:40;;;;;;;3.93;1.60;;;10.60;99.90;;;;;;5072101;28;20189;-65
2022/02/28 04:32:08;;;;;;;6.67;1.83;;;10.60;99.90;;;;;;5073132;28;20221;-64
2022/02/28 04:34:35;;;;;;;6.00;1.80;;;10.60;99.90;;;;;;5077102;28;20532;-64
2022/02/28 04:37:03;;;;;;;4.00;1.87;;;10.60;99.90;;;;;;5053698;28;20186;-65
2022/02/28 04:39:29;;;;;;;6.10;1.50;;;10.60;99.90;;;;;;5055747;28;20371;-64
2022/02/28 04:41:56;;;;;;;7.97;1.90;;;10.60;99.90;;;;;;5071894;28;20216;-64
2022/02/28 04:44:23;;;;;;;6.43;1.80;;;10.60;99.90;;;;;;5080852;28;20186;-63
2022/02/28 04:46:50;;;;;;;7.10;1.90;;;10.60;99.90;;;;;;5085016;28;20669;-64
2022/02/28 04:49:18;;;;;;;10.23;1.87;;;10.60;99.90;;;;;;5090409;28;20531;-65
2022/02/28 04:51:45;;;;;;;8.20;2.13;;;10.60;99.90;;;;;;5089875;28;20193;-64
2022/02/28 04:54:15;;;;;;;6.83;2.10;;;10.60;99.90;;;;;;5073864;28;20182;-65
2022/02/28 04:56:42;;;;;;;5.70;1.60;;;10.60;99.90;;;;;;5090244;28;20209;-63
2022/02/28 04:59:09;;;;;;;3.10;1.70;;;10.60;99.90;;;;;;5091433;28;20634;-65
2022/02/28 05:01:35;;;;;;;7.83;1.80;;;10.60;99.90;;;;;;5069442;28;20187;-63
2022/02/28 05:04:02;;;;;;;6.40;2.27;;;10.60;99.90;;;;;;5082504;28;20293;-64
2022/02/28 05:06:29;;;;;;;7.73;1.83;;;10.60;99.90;;;;;;5070335;28;20198;-65
2022/02/28 05:08:56;;;;;;;7.57;2.00;;;10.60;99.90;;;;;;5071150;28;20278;-63
2022/02/28 05:11:23;;;;;;;5.17;1.90;;;10.60;99.90;;;;;;5085460;28;20279;-63
2022/02/28 05:13:52;;;;;;;5.00;1.67;;;10.60;99.90;;;;;;5073084;28;20194;-63
2022/02/28 05:16:19;;;;;;;5.20;2.10;;;10.60;99.90;;;;;;5067092;28;20197;-66
2022/02/28 05:18:47;;;;;;;5.67;1.60;;;10.70;99.90;;;;;;5067151;28;20197;-63
2022/02/28 05:21:15;;;;;;;4.67;2.00;;;10.70;99.90;;;;;;5067768;28;20272;-64
2022/02/28 05:23:41;;;;;;;4.80;1.93;;;10.70;99.90;;;;;;5071586;28;20266;-64
2022/02/28 05:26:08;;;;;;;6.93;1.60;;;10.70;99.90;;;;;;5056051;28;20215;-64
2022/02/28 05:28:35;;;;;;;8.37;1.63;;;10.70;99.90;;;;;;5089980;28;20190;-63
2022/02/28 05:31:04;;;;;;;9.17;2.40;;;10.80;99.90;;;;;;5089687;28;20194;-66
2022/02/28 05:33:31;;;;;;;11.90;2.00;;;10.80;99.90;;;;;;5084520;28;20255;-63
2022/02/28 05:35:58;;;;;;;6.53;1.90;;;10.80;99.90;;;;;;5068869;28;20236;-64
2022/02/28 05:38:25;;;;;;;5.40;1.80;;;10.90;99.90;;;;;;5089033;28;20654;-64
2022/02/28 05:40:53;;;;;;;7.07;1.87;;;10.90;99.90;;;;;;5089488;28;20189;-65
2022/02/28 05:43:21;;;;;;;7.10;2.23;;;11.00;99.90;;;;;;5072268;28;20274;-65
2022/02/28 05:45:48;;;;;;;5.17;1.90;;;11.10;99.90;;;;;;5088761;28;20653;-64
2022/02/28 05:48:15;;;;;;;5.70;1.80;;;11.10;99.90;;;;;;5083270;28;20814;-63
2022/02/28 05:50:42;;;;;;;8.83;1.90;;;11.10;99.90;;;;;;5089577;28;20716;-65
2022/02/28 05:53:08;;;;;;;7.33;2.00;;;11.20;99.90;;;;;;5063774;28;20186;-64
2022/02/28 05:55:36;;;;;;;6.17;1.80;;;11.20;99.90;;;;;;5063632;28;20704;-64
2022/02/28 05:58:04;;;;;;;4.17;1.50;;;11.20;99.90;;;;;;5080321;28;20186;-64
2022/02/28 06:00:31;;;;;;;10.27;1.60;;;11.20;99.90;;;;;;5071984;28;20182;-65
2022/02/28 06:02:58;;;;;;;5.50;1.90;;;11.20;99.90;;;;;;5089699;28;20312;-63
2022/02/28 06:05:25;;;;;;;5.43;1.93;;;11.20;99.90;;;;;;5067361;28;20209;-65
2022/02/28 06:07:51;;;;;;;5.90;1.60;;;11.30;99.90;;;;;;5086147;28;20198;-64
2022/02/28 06:10:18;;;;;;;6.30;1.77;;;11.30;99.90;;;;;;5069870;28;20643;-63
2022/02/28 06:12:45;;;;;;;4.03;1.70;;;11.40;99.90;;;;;;5091478;28;20194;-65
2022/02/28 06:15:12;;;;;;;5.73;1.50;;;11.50;99.90;;;;;;5088777;28;20218;-66
2022/02/28 06:17:39;;;;;;;6.57;1.53;;;11.60;99.90;;;;;;5087690;28;20186;-65
2022/02/28 06:20:07;;;;;;;3.60;1.63;;;11.70;99.90;;;;;;5059324;28;20190;-63
2022/02/28 06:22:34;;;;;;;9.20;2.07;;;11.70;99.90;;;;;;5079139;28;20186;-64
2022/02/28 06:25:03;;;;;;;6.90;1.80;;;11.70;99.90;;;;;;5090633;28;20274;-64
2022/02/28 06:27:30;;;;;;;8.03;1.60;;;11.80;99.90;;;;;;5072706;28;20201;-64
2022/02/28 06:29:57;;;;;;;3.57;1.47;;;11.80;99.90;;;;;;5095092;28;20204;-64
2022/02/28 06:32:24;;;;;;;4.17;1.47;;;11.80;99.90;;;;;;5075824;28;20198;-65
2022/02/28 06:34:51;;;;;;;6.50;1.80;;;11.80;99.90;;;;;;5087442;28;20187;-64
2022/02/28 06:37:19;;;;;;;5.30;1.60;;;11.70;99.90;;;;;;5083119;28;20199;-63
2022/02/28 06:39:47;;;;;;;5.03;2.03;;;11.80;99.90;;;;;;5092623;28;20238;-64
2022/02/28 06:42:15;;;;;;;3.27;1.50;;;11.80;99.90;;;;;;5076152;28;20623;-63
2022/02/28 06:44:42;;;;;;;5.83;1.40;;;11.90;99.90;;;;;;5090524;28;20190;-64
2022/02/28 06:47:09;;;;;;;4.90;1.67;;;12.00;99.90;;;;;;5076710;28;20216;-65
2022/02/28 06:49:36;;;;;;;3.07;1.50;;;12.00;99.90;;;;;;5071312;28;20292;-65
2022/02/28 06:52:05;;;;;;;6.43;2.10;;;12.00;99.90;;;;;;5090960;28;20186;-64
2022/02/28 06:54:32;;;;;;;6.07;1.60;;;12.10;99.90;;;;;;5090975;28;20781;-63
2022/02/28 06:57:03;;;;;;;4.23;1.50;;;12.20;99.90;;;;;;5072292;28;20854;-64
2022/02/28 06:59:31;;;;;;;4.90;1.40;;;12.20;99.90;;;;;;5082962;28;20213;-64
2022/02/28 07:01:58;;;;;;;6.93;1.30;;;12.30;99.90;;;;;;5082697;28;20228;-65
2022/02/28 07:04:26;;;;;;;7.87;1.73;;;12.40;99.90;;;;;;5072204;28;20190;-63
2022/02/28 07:06:53;;;;;;;9.10;1.63;;;12.40;99.90;;;;;;5073701;28;20704;-64
2022/02/28 07:09:20;;;;;;;4.60;1.63;;;12.40;99.90;;;;;;5092050;28;20182;-63
2022/02/28 07:11:47;;;;;;;6.97;1.77;;;12.40;99.90;;;;;;5093033;28;20194;-64
2022/02/28 07:14:14;;;;;;;6.77;2.10;;;12.50;99.90;;;;;;5093269;28;20209;-64
2022/02/28 07:16:41;;;;;;;5.00;1.70;;;12.50;99.90;;;;;;5075558;28;20214;-64
2022/02/28 07:19:08;;;;;;;8.83;1.70;;;12.60;99.90;;;;;;5093522;28;20182;-64
2022/02/28 07:21:35;;;;;;;4.73;1.80;;;12.60;99.90;;;;;;5083473;28;20186;-65
2022/02/28 07:24:03;;;;;;;5.10;1.70;;;12.70;99.90;;;;;;5083521;28;20200;-64
2022/02/28 07:26:30;;;;;;;5.73;1.50;;;12.80;99.90;;;;;;5084421;28;20186;-64
2022/02/28 07:28:58;;;;;;;4.73;1.57;;;12.80;99.90;;;;;;5092987;28;20194;-64
2022/02/28 07:31:25;;;;;;;5.17;1.80;;;12.80;99.90;;;;;;5093145;28;20221;-66
2022/02/28 07:33:51;;;;;;;3.90;2.00;;;12.80;99.90;;;;;;5091463;28;20282;-64
2022/02/28 07:36:19;;;;;;;4.53;1.93;;;12.90;99.90;;;;;;5089564;28;20217;-64
2022/02/28 07:38:46;;;;;;;7.97;1.90;;;13.00;99.90;;;;;;5091820;28;20273;-63
2022/02/28 07:41:16;;;;;;;4.50;1.53;;;13.10;99.90;;;;;;5091991;28;20189;-65
2022/02/28 07:43:42;;;;;;;6.80;2.30;;;13.10;99.90;;;;;;5091383;28;20178;-64
2022/02/28 07:46:09;;;;;;;5.97;1.80;;;13.20;99.90;;;;;;5091022;28;20247;-63
2022/02/28 07:48:36;;;;;;;7.93;1.87;;;13.30;99.90;;;;;;5075093;28;20260;-65
2022/02/28 07:51:03;;;;;;;3.67;1.50;;;13.40;99.90;;;;;;5085942;28;20182;-64
2022/02/28 07:53:33;;;;;;;6.10;2.07;;;13.40;99.90;;;;;;5087197;28;20194;-64
2022/02/28 07:56:00;;;;;;;7.27;1.60;;;13.40;99.90;;;;;;5071095;28;20244;-65
2022/02/28 07:58:27;;;;;;;4.83;1.70;;;13.40;99.90;;;;;;5074092;28;20701;-64
2022/02/28 08:00:54;;;;;;;3.77;1.40;;;13.40;99.90;;;;;;5072476;28;20174;-65
2022/02/28 08:03:22;;;;;;;4.77;1.70;;;13.40;99.90;;;;;;5091024;28;20209;-65
2022/02/28 08:05:50;;;;;;;3.00;1.63;;;13.40;99.90;;;;;;5073232;28;20210;-64
2022/02/28 08:08:18;;;;;;;4.53;1.60;;;13.30;99.90;;;;;;5073611;28;20697;-65
2022/02/28 08:10:46;;;;;;;5.77;1.77;;;13.40;99.90;;;;;;5093183;28;20178;-64
2022/02/28 08:13:13;;;;;;;5.90;1.83;;;13.40;99.90;;;;;;5074408;28;20189;-64
2022/02/28 08:15:41;;;;;;;5.07;1.70;;;13.50;99.90;;;;;;5089834;28;20206;-63
2022/02/28 08:18:10;;;;;;;5.30;1.53;;;13.50;99.90;;;;;;5092776;28;20205;-64
2022/02/28 08:20:37;;;;;;;6.20;2.03;;;13.50;99.90;;;;;;5092782;28;20183;-65
2022/02/28 08:23:07;;;;;;;10.63;1.90;;;13.70;99.90;;;;;;5082014;28;20239;-64
2022/02/28 08:25:35;;;;;;;4.87;2.17;;;13.80;99.90;;;;;;5088945;28;20182;-64
2022/02/28 08:28:02;;;;;;;5.87;1.90;;;13.80;99.90;;;;;;5089967;28;20199;-64
2022/02/28 08:30:35;;;;;;;7.57;2.00;;;13.90;99.90;;;;;;5072796;28;20182;-63
2022/02/28 08:33:02;;;;;;;5.77;1.87;;;13.90;99.90;;;;;;5087507;28;20190;-65
2022/02/28 08:35:28;;;;;;;4.27;1.47;;;13.90;99.90;;;;;;5076119;28;20257;-64
2022/02/28 08:37:55;;;;;;;4.57;1.53;;;13.90;99.90;;;;;;5081617;28;20298;-64
2022/02/28 08:40:21;;;;;;;7.23;1.70;;;13.90;99.90;;;;;;5065759;28;20209;-64
2022/02/28 08:42:47;;;;;;;5.17;1.70;;;13.90;99.90;;;;;;5077233;28;20295;-65
2022/02/28 08:45:14;;;;;;;3.83;1.37;;;14.00;99.90;;;;;;5076868;28;20205;-64
2022/02/28 08:47:41;;;;;;;3.53;1.40;;;14.00;99.90;;;;;;5080627;28;20190;-63
2022/02/28 08:50:16;;;;;;;4.87;1.67;;;14.10;99.90;;;;;;5077470;28;20311;-66
2022/02/28 08:52:46;;;;;;;5.63;2.00;;;14.20;99.90;;;;;;5083711;28;20196;-63
2022/02/28 08:55:13;;;;;;;9.23;1.70;;;14.20;99.90;;;;;;5073752;28;20214;-66
2022/02/28 08:57:40;;;;;;;6.13;1.70;;;14.30;99.90;;;;;;5084558;28;20891;-65
2022/02/28 09:00:10;;;;;;;5.57;1.50;;;14.30;99.90;;;;;;5081894;28;20182;-64
2022/02/28 09:02:39;;;;;;;5.70;1.80;;;14.20;99.90;;;;;;5088312;28;20641;-63
2022/02/28 09:05:06;;;;;;;5.97;1.60;;;14.30;99.90;;;;;;5084950;28;20554;-65
2022/02/28 09:07:32;;;;;;;7.43;2.00;;;14.40;99.90;;;;;;5078541;28;20190;-65
2022/02/28 09:09:59;;;;;;;7.40;1.67;;;14.60;99.90;;;;;;5083615;28;20201;-65
2022/02/28 09:12:27;;;;;;;6.40;1.73;;;14.90;99.90;;;;;;5082379;28;20256;-65
2022/02/28 09:14:55;;;;;;;5.87;1.77;;;14.80;99.90;;;;;;5067363;28;20563;-64
2022/02/28 09:17:23;;;;;;;6.67;1.80;;;14.60;99.90;;;;;;5086746;28;20259;-64
2022/02/28 09:19:50;;;;;;;7.73;1.83;;;14.60;99.90;;;;;;5080395;28;20182;-65
2022/02/28 09:22:18;;;;;;;4.10;1.70;;;14.60;99.90;;;;;;5081849;28;20226;-65
2022/02/28 09:24:45;;;;;;;5.33;1.67;;;14.60;99.90;;;;;;5057869;28;20190;-64
2022/02/28 09:27:12;;;;;;;8.70;2.07;;;14.60;99.90;;;;;;5079589;28;20251;-65
2022/02/28 09:29:39;;;;;;;4.73;1.90;;;14.70;99.90;;;;;;5067212;28;20190;-66
2022/02/28 09:32:06;;;;;;;10.30;2.17;;;14.70;99.90;;;;;;5085032;28;20178;-65
2022/02/28 09:34:33;;;;;;;4.40;1.70;;;14.70;99.90;;;;;;5063684;28;20207;-63
2022/02/28 09:37:00;;;;;;;9.40;1.93;;;14.80;99.90;;;;;;5080397;28;20218;-64
2022/02/28 09:39:27;;;;;;;4.63;1.63;;;14.90;99.90;;;;;;5076584;28;20289;-65
2022/02/28 09:41:58;;;;;;;7.23;1.80;;;15.00;99.90;;;;;;5071699;28;20190;-64
2022/02/28 09:44:26;;;;;;;7.77;1.73;;;15.00;99.90;;;;;;5070849;28;20259;-65
2022/02/28 09:46:54;;;;;;;4.50;1.53;;;15.10;99.90;;;;;;5088056;28;20282;-65
2022/02/28 09:49:21;;;;;;;4.40;1.60;;;15.20;99.90;;;;;;5086157;28;20223;-65
2022/02/28 09:51:47;;;;;;;6.43;1.93;;;15.20;99.90;;;;;;5082355;28;20190;-65
2022/02/28 09:54:14;;;;;;;6.20;1.70;;;15.40;99.90;;;;;;5081481;28;20282;-64
2022/02/28 09:56:40;;;;;;;5.17;1.63;;;15.50;99.90;;;;;;5081772;28;20587;-66
2022/02/28 09:59:07;;;;;;;4.60;1.57;;;15.80;99.90;;;;;;5068141;28;20283;-66
2022/02/28 10:01:34;;;;;;;8.20;2.07;;;15.90;99.90;;;;;;5076867;28;20191;-64
2022/02/28 10:04:01;;;;;;;7.97;1.87;;;15.80;99.90;;;;;;5080941;28;20196;-66
2022/02/28 10:06:27;;;;;;;2.43;1.10;;;16.00;99.90;;;;;;5080223;28;20202;-65
2022/02/28 10:09:03;;;;;;;4.67;1.50;;;16.60;99.90;;;;;;5081846;28;20323;-65
2022/02/28 10:11:38;;;;;;;6.37;1.70;;;17.20;99.90;;;;;;5061875;28;20190;-65
2022/02/28 10:14:08;;;;;;;5.87;1.73;;;17.60;99.90;;;;;;5064094;28;20581;-66
2022/02/28 10:16:42;;;;;;;4.40;1.60;;;17.70;99.90;;;;;;5081172;28;20331;-65
2022/02/28 10:19:15;;;;;;;12.77;1.90;;;17.00;99.90;;;;;;5083247;28;20189;-65
2022/02/28 10:21:48;;;;;;;5.67;1.60;;;16.30;99.90;;;;;;5074546;28;20190;-66
2022/02/28 10:24:35;;;;;;;11.60;2.80;;;16.10;99.90;;;;;;5073982;28;20175;-65
2022/02/28 10:27:02;;;;;;;3.63;1.40;;;15.90;99.90;;;;;;5079543;28;21007;-66
2022/02/28 10:29:34;;;;;;;3.13;1.20;;;15.70;99.90;;;;;;5078877;28;20750;-65
2022/02/28 10:32:11;;;;;;;5.40;1.70;;;15.60;99.90;;;;;;5075214;28;20189;-65
2022/02/28 10:37:25;;;;;;;2.37;1.03;;;15.80;99.90;;;;;;5084567;28;20200;-64
2022/02/28 10:40:01;;;;;;;9.00;1.40;;;16.40;99.90;;;;;;5074016;28;20194;-66
2022/02/28 10:42:53;;;;;;;5.57;1.27;;;18.40;99.90;;;;;;5078636;28;20187;-64
2022/02/28 10:45:26;;;;;;;3.07;1.33;;;19.30;99.90;;;;;;5081845;28;20673;-65
2022/02/28 10:47:54;;;;;;;2.97;1.30;;;19.60;99.90;;;;;;5072943;28;20183;-65
2022/02/28 10:50:41;;;;;;;2.17;1.20;;;19.40;99.90;;;;;;5084635;28;20629;-63
2022/02/28 10:53:22;;;;;;;5.40;1.20;;;19.20;99.90;;;;;;5078990;28;20182;-64
2022/02/28 10:55:52;;;;;;;4.53;1.47;;;18.90;99.90;;;;;;5078250;28;20234;-66
2022/02/28 10:58:26;;;;;;;2.70;1.40;;;18.90;99.90;;;;;;5078262;28;20264;-66
2022/02/28 11:01:04;;;;;;;5.17;1.00;;;18.80;99.90;;;;;;5080602;28;20192;-66
2022/02/28 11:03:54;;;;;;;3.20;1.33;;;18.60;99.90;;;;;;5084786;28;20186;-64
2022/02/28 11:06:25;;;;;;;4.67;1.30;;;18.40;99.90;;;;;;5087277;28;20494;-64
2022/02/28 11:08:53;;;;;;;3.60;1.30;;;18.10;99.90;;;;;;5065247;28;20690;-63
2022/02/28 11:11:20;;;;;;;6.67;1.57;;;17.90;99.90;;;;;;5065028;28;20727;-67
2022/02/28 11:13:46;;;;;;;6.23;1.50;;;17.70;99.90;;;;;;5078301;28;20216;-66
2022/02/28 11:16:13;;;;;;;3.37;1.17;;;17.50;99.90;;;;;;5077220;28;20202;-65
2022/02/28 11:18:42;;;;;;;5.03;1.50;;;17.20;99.90;;;;;;5086200;28;20194;-65
2022/02/28 11:21:12;;;;;;;4.83;1.67;;;17.10;99.90;;;;;;5083916;28;20194;-67
2022/02/28 11:23:47;;;;;;;3.00;1.40;;;17.00;99.90;;;;;;5085670;28;20523;-62
2022/02/28 11:26:18;;;;;;;3.73;1.53;;;16.90;99.90;;;;;;5089176;28;20190;-66
2022/02/28 11:28:45;;;;;;;3.50;1.47;;;16.90;99.90;;;;;;5082171;28;20186;-66
2022/02/28 11:31:18;;;;;;;5.33;1.50;;;16.70;99.90;;;;;;5081638;28;20590;-66
2022/02/28 11:34:06;;;;;;;3.70;1.47;;;16.70;99.90;;;;;;5091370;28;20281;-65
2022/02/28 11:36:49;;;;;;;4.53;1.80;;;16.60;99.90;;;;;;5085939;28;20841;-65
2022/02/28 11:39:16;;;;;;;5.90;1.40;;;16.60;99.90;;;;;;5071699;28;20185;-65
2022/02/28 11:41:43;;;;;;;6.33;1.60;;;16.50;99.90;;;;;;5074404;28;20195;-66
2022/02/28 11:44:12;;;;;;;5.13;1.63;;;16.40;99.90;;;;;;5084580;28;20178;-65
2022/02/28 11:46:42;;;;;;;4.70;1.43;;;16.30;99.90;;;;;;5091912;28;20182;-67
2022/02/28 11:49:10;;;;;;;3.70;1.40;;;16.40;99.90;;;;;;5089022;28;20182;-65
2022/02/28 11:51:39;;;;;;;5.97;1.37;;;16.40;99.90;;;;;;5079025;28;20237;-65
2022/02/28 11:54:22;;;;;;;5.20;1.33;;;16.40;99.90;;;;;;5084484;28;20197;-65
2022/02/28 11:56:54;;;;;;;2.07;1.13;;;16.30;99.90;;;;;;5078079;28;20667;-65
2022/02/28 11:59:30;;;;;;;3.17;1.10;;;16.30;99.90;;;;;;5081404;28;20281;-65
2022/02/28 12:02:20;;;;;;;8.10;1.37;;;16.20;99.90;;;;;;5088073;28;20254;-64
2022/02/28 12:04:47;;;;;;;4.33;1.20;;;16.10;99.90;;;;;;5080256;28;20898;-67
2022/02/28 12:07:30;;;;;;;5.20;1.40;;;16.10;99.90;;;;;;5072154;28;20194;-65
2022/02/28 12:10:04;;;;;;;7.90;1.60;;;16.00;99.90;;;;;;5088799;28;20190;-67
2022/02/28 12:12:36;;;;;;;5.50;1.63;;;16.00;99.90;;;;;;5090508;28;20178;-66
2022/02/28 12:15:03;;;;;;;4.97;1.73;;;15.90;99.90;;;;;;5082969;28;20587;-67
2022/02/28 12:17:51;;;;;;;4.67;1.70;;;15.70;99.90;;;;;;5064592;28;20946;-66
2022/02/28 12:20:34;;;;;;;4.70;1.63;;;15.70;99.90;;;;;;5081752;28;20641;-67
2022/02/28 12:23:05;;;;;;;5.57;1.90;;;15.70;99.90;;;;;;5091942;28;20185;-66
2022/02/28 12:25:39;;;;;;;10.50;1.80;;;15.60;99.90;;;;;;5088611;28;20214;-66
2022/02/28 12:28:35;;;;;;;5.10;1.70;;;15.50;99.90;;;;;;5089862;28;20900;-66
2022/02/28 12:31:34;;;;;;;5.87;1.83;;;15.50;99.90;;;;;;5081119;28;20194;-66
2022/02/28 12:34:08;;;;;;;12.90;2.20;;;15.50;99.90;;;;;;5083830;28;20625;-65
2022/02/28 12:36:36;;;;;;;13.60;2.30;;;15.40;99.90;;;;;;5069200;28;20703;-64
2022/02/28 12:39:14;;;;;;;5.70;2.30;;;15.40;99.90;;;;;;5089546;28;20238;-63
2022/02/28 12:41:49;;;;;;;5.73;2.10;;;15.30;99.90;;;;;;5088145;28;20213;-65
2022/02/28 12:44:18;;;;;;;6.27;2.40;;;15.20;99.90;;;;;;5088664;28;20173;-63
2022/02/28 12:46:53;;;;;;;8.43;2.43;;;15.20;99.90;;;;;;5085967;28;20265;-64
2022/02/28 12:49:26;;;;;;;6.70;2.30;;;15.10;99.90;;;;;;5088559;28;20201;-66
2022/02/28 12:51:53;;;;;;;7.77;2.43;;;15.00;99.90;;;;;;5078386;28;20253;-64
2022/02/28 12:54:26;;;;;;;12.90;2.50;;;15.00;99.90;;;;;;5072287;28;20224;-64
2022/02/28 12:57:00;;;;;;;10.67;2.40;;;15.00;99.90;;;;;;5069754;28;20201;-65